createdAt,value
2019-02-02T00:00:44.483Z,104.10
2019-02-02T00:05:52.230Z,64.93
2019-02-02T00:10:59.275Z,71.13
2019-02-02T00:16:06.345Z,71.70
2019-02-02T00:21:13.745Z,75.47
2019-02-02T00:26:19.856Z,75.90
2019-02-02T00:31:25.701Z,77.77
2019-02-02T00:36:31.717Z,75.10
2019-02-02T00:41:39.176Z,82.80
2019-02-02T00:46:44.795Z,163.35
2019-02-02T00:51:50.654Z,122.40
2019-02-02T00:56:57.312Z,91.53
2019-02-02T01:02:03.341Z,82.90
2019-02-02T01:07:09.381Z,84.93
2019-02-02T01:12:15.621Z,88.40
2019-02-02T01:17:21.239Z,93.23
2019-02-02T01:22:27.419Z,91.80
2019-02-02T01:27:33.380Z,89.83
2019-02-02T01:32:39.564Z,90.83
2019-02-02T01:37:45.653Z,96.13
2019-02-02T01:42:52.103Z,85.93
2019-02-02T01:47:58.330Z,94.77
2019-02-02T01:53:04.706Z,88.67
2019-02-02T01:58:16.813Z,92.13
2019-02-02T02:03:18.283Z,90.20
2019-02-02T02:08:25.166Z,95.40
2019-02-02T02:13:31.087Z,101.57
2019-02-02T02:18:36.700Z,96.70
2019-02-02T02:23:42.560Z,94.50
2019-02-02T02:28:49.054Z,99.87
2019-02-02T02:33:54.669Z,98.67
2019-02-02T02:39:00.446Z,99.43
2019-02-02T02:44:07.670Z,99.40
2019-02-02T02:49:13.381Z,106.37
2019-02-02T02:54:19.414Z,105.20
2019-02-02T02:59:25.727Z,111.80
2019-02-02T03:04:31.422Z,109.67
2019-02-02T03:09:37.278Z,109.77
2019-02-02T03:14:43.049Z,116.83
2019-02-02T03:19:48.833Z,110.33
2019-02-02T03:24:54.671Z,115.17
2019-02-02T03:30:01.379Z,112.27
2019-02-02T03:35:08.916Z,111.47
2019-02-02T03:40:19.449Z,116.10
2019-02-02T03:45:25.872Z,112.93
2019-02-02T03:50:31.448Z,107.20
2019-02-02T03:55:37.146Z,110.63
2019-02-02T04:00:42.878Z,116.10
2019-02-02T04:05:50.105Z,113.47
2019-02-02T04:10:55.862Z,113.33
2019-02-02T04:16:01.485Z,115.77
2019-02-02T04:21:07.670Z,113.23
2019-02-02T04:26:13.896Z,116.23
2019-02-02T04:31:19.581Z,116.73
2019-02-02T04:36:26.441Z,118.03
2019-02-02T04:41:32.143Z,114.80
2019-02-02T04:46:42.723Z,119.70
2019-02-02T04:51:48.342Z,118.67
2019-02-02T04:56:54.371Z,120.60
2019-02-02T05:02:01.754Z,111.30
2019-02-02T05:07:08.183Z,115.17
2019-02-02T05:12:15.740Z,119.57
2019-02-02T05:17:21.760Z,121.60
2019-02-02T05:22:27.581Z,111.07
2019-02-02T05:27:33.858Z,115.03
2019-02-02T05:32:42.414Z,120.63
2019-02-02T05:37:48.422Z,120.50
2019-02-02T05:42:54.243Z,115.50
2019-02-02T05:48:01.121Z,119.87
2019-02-02T05:53:06.684Z,123.53
2019-02-02T05:58:12.544Z,120.07
2019-02-02T06:03:19.577Z,109.83
2019-02-02T06:08:25.591Z,130.03
2019-02-02T06:13:32.001Z,124.00
2019-02-02T06:18:37.934Z,117.00
2019-02-02T06:23:44.073Z,121.53
2019-02-02T06:28:50.710Z,116.73
2019-02-02T06:33:56.461Z,109.20
2019-02-02T06:39:05.022Z,117.87
2019-02-02T06:44:11.048Z,116.70
2019-02-02T06:49:17.079Z,121.83
2019-02-02T06:54:23.365Z,122.27
2019-02-02T06:59:29.339Z,109.20
2019-02-02T07:04:35.107Z,121.00
2019-02-02T07:09:41.292Z,121.57
2019-02-02T07:14:46.982Z,118.77
2019-02-02T07:19:52.618Z,130.63
2019-02-02T07:24:59.731Z,120.17
2019-02-02T07:30:28.366Z,122.50
2019-02-02T07:35:29.243Z,125.97
2019-02-02T07:40:36.879Z,121.20
2019-02-02T07:45:43.016Z,122.77
2019-02-02T07:50:49.502Z,117.77
2019-02-02T07:55:56.907Z,121.37
2019-02-02T08:01:02.758Z,119.83
2019-02-02T08:06:09.582Z,120.33
2019-02-02T08:11:16.058Z,114.77
2019-02-02T08:16:23.482Z,127.07
2019-02-02T08:21:29.250Z,129.10
2019-02-02T08:26:35.916Z,133.73
2019-02-02T08:31:42.997Z,131.77
2019-02-02T08:36:48.924Z,134.47
2019-02-02T08:41:54.989Z,133.57
2019-02-02T08:47:01.193Z,129.27
2019-02-02T08:52:07.396Z,137.07
2019-02-02T08:57:15.215Z,124.13
2019-02-02T09:02:20.944Z,129.10
2019-02-02T09:07:27.327Z,129.10
2019-02-02T09:12:34.206Z,135.43
2019-02-02T09:17:41.232Z,159.63
2019-02-02T09:22:47.975Z,123.93
2019-02-02T09:27:53.973Z,124.00
2019-02-02T09:32:59.780Z,124.67
2019-02-02T09:38:06.058Z,123.43
2019-02-02T09:43:11.989Z,126.47
2019-02-02T09:48:18.433Z,126.57
2019-02-02T09:53:25.673Z,126.90
2019-02-02T09:58:31.830Z,129.40
2019-02-02T10:03:38.484Z,132.70
2019-02-02T10:08:44.184Z,127.43
2019-02-02T10:13:52.175Z,123.83
2019-02-02T10:18:58.246Z,127.00
2019-02-02T10:24:05.796Z,132.10
2019-02-02T10:29:11.878Z,115.87
2019-02-02T10:34:18.344Z,126.20
2019-02-02T10:39:24.552Z,143.33
2019-02-02T10:44:30.493Z,134.57
2019-02-02T10:49:38.160Z,131.33
2019-02-02T10:54:44.342Z,167.73
2019-02-02T10:59:50.293Z,141.87
2019-02-02T11:04:56.436Z,135.93
2019-02-02T11:10:02.543Z,136.00
2019-02-02T11:15:18.370Z,135.67
2019-02-02T11:20:33.023Z,144.33
2019-02-02T11:25:40.392Z,140.17
2019-02-02T11:30:46.709Z,143.60
2019-02-02T11:35:52.552Z,142.40
2019-02-02T11:40:59.343Z,143.90
2019-02-02T11:46:05.403Z,143.20
2019-02-02T11:51:11.130Z,140.80
2019-02-02T11:56:17.424Z,141.80
2019-02-02T12:01:24.858Z,144.63
2019-02-02T12:06:31.337Z,150.83
2019-02-02T12:11:37.157Z,142.77
2019-02-02T12:16:43.810Z,148.17
2019-02-02T12:21:49.615Z,157.87
2019-02-02T12:26:55.349Z,141.00
2019-02-02T12:32:02.370Z,158.47
2019-02-02T12:37:10.061Z,150.30
2019-02-02T12:42:16.649Z,140.53
2019-02-02T12:47:22.942Z,157.50
2019-02-02T12:52:29.800Z,152.10
2019-02-02T12:57:35.987Z,143.20
2019-02-02T13:02:42.019Z,143.87
2019-02-02T13:07:48.178Z,157.37
2019-02-02T13:12:54.838Z,160.70
2019-02-02T13:18:01.005Z,142.27
2019-02-02T13:23:08.201Z,160.53
2019-02-02T13:28:15.292Z,150.77
2019-02-02T13:33:21.296Z,143.00
2019-02-02T13:38:27.058Z,132.87
2019-02-02T13:43:33.119Z,125.83
2019-02-02T13:48:40.393Z,105.60
2019-02-02T13:53:47.471Z,85.93
2019-02-02T13:58:54.062Z,93.60
2019-02-02T14:04:00.919Z,80.17
2019-02-02T14:09:08.193Z,88.80
2019-02-02T14:14:14.080Z,79.60
2019-02-02T14:19:20.666Z,89.43
2019-02-02T14:24:28.234Z,92.93
2019-02-02T14:29:34.013Z,79.90
2019-02-02T14:34:40.671Z,78.40
2019-02-02T14:39:49.288Z,70.67
2019-02-02T14:44:55.272Z,83.43
2019-02-02T14:50:01.613Z,83.33
2019-02-02T14:55:15.614Z,88.33
2019-02-02T15:00:25.782Z,82.87
2019-02-02T15:05:42.618Z,90.97
2019-02-02T15:10:40.258Z,109.50
2019-02-02T15:15:46.006Z,111.53
2019-02-02T15:20:51.732Z,117.97
2019-02-02T15:25:57.726Z,113.53
2019-02-02T15:31:03.880Z,112.97
2019-02-02T15:36:10.734Z,108.40
2019-02-02T15:41:16.738Z,101.20
2019-02-02T15:46:22.481Z,106.80
2019-02-02T15:51:39.810Z,89.63
2019-02-02T15:56:36.241Z,85.53
2019-02-02T16:01:44.415Z,88.33
2019-02-02T16:06:50.477Z,91.13
2019-02-02T16:11:56.434Z,90.47
2019-02-02T16:17:02.704Z,87.60
2019-02-02T16:22:08.809Z,86.07
2019-02-02T16:27:14.374Z,98.87
2019-02-02T16:32:20.690Z,92.73
2019-02-02T16:37:26.460Z,88.77
2019-02-02T16:42:35.830Z,85.83
2019-02-02T16:47:40.495Z,89.37
2019-02-02T16:52:46.730Z,85.30
2019-02-02T16:57:52.964Z,79.93
2019-02-02T17:02:59.522Z,75.53
2019-02-02T17:08:05.223Z,89.27
2019-02-02T17:13:13.974Z,77.73
2019-02-02T17:18:20.160Z,84.83
2019-02-02T17:23:27.118Z,97.30
2019-02-02T17:28:33.382Z,91.57
2019-02-02T17:33:39.934Z,91.37
2019-02-02T17:38:46.399Z,98.03
2019-02-02T17:43:52.768Z,91.20
2019-02-02T17:48:58.742Z,93.77
2019-02-02T17:54:06.490Z,82.57
2019-02-02T17:59:12.214Z,67.57
2019-02-02T18:04:19.080Z,75.10
2019-02-02T18:09:24.839Z,70.70
2019-02-02T18:14:31.595Z,78.33
2019-02-02T18:19:37.582Z,73.27
2019-02-02T18:24:44.242Z,73.63
2019-02-02T18:29:50.727Z,77.47
2019-02-02T18:34:57.036Z,74.33
2019-02-02T18:40:03.979Z,69.13
2019-02-02T18:45:18.916Z,70.67
2019-02-02T18:50:26.268Z,65.63
2019-02-02T18:55:41.671Z,70.87
2019-02-02T19:00:47.659Z,69.00
2019-02-02T19:05:53.581Z,70.27
2019-02-02T19:11:03.495Z,70.63
2019-02-02T19:16:08.612Z,68.87
2019-02-02T19:21:15.418Z,70.33
2019-02-02T19:26:21.772Z,67.17
2019-02-02T19:31:28.650Z,70.90
2019-02-02T19:36:35.990Z,73.47
2019-02-02T19:41:43.916Z,70.13
2019-02-02T19:46:50.582Z,73.93
2019-02-02T19:51:57.048Z,71.90
2019-02-02T19:57:03.449Z,68.77
2019-02-02T20:02:09.730Z,73.30
2019-02-02T20:07:17.176Z,68.87
2019-02-02T20:12:23.544Z,83.57
2019-02-02T20:17:30.835Z,84.33
2019-02-02T20:22:38.453Z,87.03
2019-02-02T20:27:46.007Z,93.87
2019-02-02T20:32:52.447Z,92.83
2019-02-02T20:37:58.955Z,100.43
2019-02-02T20:43:05.134Z,100.67
2019-02-02T20:48:12.464Z,93.20
2019-02-02T20:53:18.775Z,98.07
2019-02-02T20:58:25.221Z,98.43
2019-02-02T21:03:31.431Z,109.87
2019-02-02T21:08:38.400Z,99.13
2019-02-02T21:13:46.832Z,99.80
2019-02-02T21:18:52.816Z,84.03
2019-02-02T21:23:58.577Z,91.77
2019-02-02T21:29:05.412Z,82.03
2019-02-02T21:34:12.288Z,115.50
2019-02-02T21:39:19.409Z,71.30
2019-02-02T21:44:25.646Z,66.03
2019-02-02T21:49:34.533Z,72.33
2019-02-02T21:54:41.796Z,58.60
2019-02-02T21:59:48.607Z,51.17
2019-02-02T22:04:54.625Z,43.07
2019-02-02T22:10:01.791Z,36.17
2019-02-02T22:15:17.389Z,43.37
2019-02-02T22:20:23.148Z,35.83
2019-02-02T22:25:34.125Z,35.37
2019-02-02T22:30:40.144Z,34.57
2019-02-02T22:35:47.671Z,37.07
2019-02-02T22:40:53.775Z,31.00
2019-02-02T22:45:59.947Z,31.97
2019-02-02T22:51:07.554Z,33.93
2019-02-02T22:56:13.853Z,37.00
2019-02-02T23:01:23.893Z,35.73
2019-02-02T23:06:46.088Z,22.77
2019-02-02T23:12:12.702Z,38.05
2019-02-02T23:17:20.382Z,36.47
2019-02-02T23:22:28.371Z,42.40
2019-02-02T23:27:34.764Z,39.97
2019-02-02T23:32:41.845Z,28.47
2019-02-02T23:37:49.279Z,25.97
2019-02-02T23:42:55.537Z,30.73
2019-02-02T23:48:02.608Z,35.67
2019-02-02T23:53:10.856Z,36.97
2019-02-02T23:58:17.625Z,38.43
